sensor_id;sensor_type;location;lat;lon;timestamp;P1;durP1;ratioP1;P2;durP2;ratioP2
35777;SDS011;21899;42.662;23.316;2023-09-12T00:01:48;9.27;;;3.85;;
35777;SDS011;21899;42.662;23.316;2023-09-12T00:04:13;9.73;;;3.90;;
35777;SDS011;21899;42.662;23.316;2023-09-12T00:06:38;11.27;;;4.32;;
35777;SDS011;21899;42.662;23.316;2023-09-12T00:09:04;5.38;;;3.00;;
35777;SDS011;21899;42.662;23.316;2023-09-12T00:11:32;6.90;;;3.20;;
35777;SDS011;21899;42.662;23.316;2023-09-12T00:13:57;8.52;;;3.47;;
35777;SDS011;21899;42.662;23.316;2023-09-12T00:16:24;6.50;;;3.45;;
35777;SDS011;21899;42.662;23.316;2023-09-12T00:18:50;8.57;;;3.05;;
35777;SDS011;21899;42.662;23.316;2023-09-12T00:21:15;6.10;;;3.30;;
35777;SDS011;21899;42.662;23.316;2023-09-12T00:23:41;7.57;;;3.00;;
35777;SDS011;21899;42.662;23.316;2023-09-12T00:26:06;7.93;;;3.80;;
35777;SDS011;21899;42.662;23.316;2023-09-12T00:28:31;5.70;;;3.42;;
35777;SDS011;21899;42.662;23.316;2023-09-12T00:30:59;6.50;;;3.58;;
35777;SDS011;21899;42.662;23.316;2023-09-12T00:33:24;8.70;;;3.70;;
35777;SDS011;21899;42.662;23.316;2023-09-12T00:35:49;6.57;;;3.83;;
35777;SDS011;21899;42.662;23.316;2023-09-12T00:38:15;10.85;;;4.43;;
35777;SDS011;21899;42.662;23.316;2023-09-12T00:40:40;14.45;;;4.60;;
35777;SDS011;21899;42.662;23.316;2023-09-12T00:43:06;8.90;;;3.95;;
35777;SDS011;21899;42.662;23.316;2023-09-12T00:45:31;12.40;;;4.15;;
35777;SDS011;21899;42.662;23.316;2023-09-12T00:47:57;7.72;;;3.28;;
35777;SDS011;21899;42.662;23.316;2023-09-12T00:50:23;8.52;;;3.53;;
35777;SDS011;21899;42.662;23.316;2023-09-12T00:52:50;14.32;;;3.70;;
35777;SDS011;21899;42.662;23.316;2023-09-12T00:55:16;9.68;;;3.80;;
35777;SDS011;21899;42.662;23.316;2023-09-12T00:57:41;11.77;;;4.40;;
35777;SDS011;21899;42.662;23.316;2023-09-12T01:00:08;7.50;;;3.40;;
35777;SDS011;21899;42.662;23.316;2023-09-12T01:02:41;12.00;;;3.95;;
35777;SDS011;21899;42.662;23.316;2023-09-12T01:05:07;9.65;;;4.13;;
35777;SDS011;21899;42.662;23.316;2023-09-12T01:07:35;12.25;;;3.90;;
35777;SDS011;21899;42.662;23.316;2023-09-12T01:10:01;6.00;;;3.72;;
35777;SDS011;21899;42.662;23.316;2023-09-12T01:12:27;9.68;;;3.78;;
35777;SDS011;21899;42.662;23.316;2023-09-12T01:14:54;8.18;;;4.45;;
35777;SDS011;21899;42.662;23.316;2023-09-12T01:17:19;12.68;;;4.53;;
35777;SDS011;21899;42.662;23.316;2023-09-12T01:19:45;8.25;;;3.40;;
35777;SDS011;21899;42.662;23.316;2023-09-12T01:30:14;10.35;;;4.22;;
35777;SDS011;21899;42.662;23.316;2023-09-12T01:32:43;6.45;;;4.00;;
35777;SDS011;21899;42.662;23.316;2023-09-12T01:35:08;7.72;;;3.30;;
35777;SDS011;21899;42.662;23.316;2023-09-12T01:37:34;9.30;;;3.97;;
35777;SDS011;21899;42.662;23.316;2023-09-12T01:39:59;7.68;;;4.90;;
35777;SDS011;21899;42.662;23.316;2023-09-12T01:42:27;9.75;;;4.20;;
35777;SDS011;21899;42.662;23.316;2023-09-12T01:45:08;12.02;;;4.53;;
35777;SDS011;21899;42.662;23.316;2023-09-12T01:47:35;10.35;;;3.78;;
35777;SDS011;21899;42.662;23.316;2023-09-12T01:50:03;5.25;;;3.83;;
35777;SDS011;21899;42.662;23.316;2023-09-12T01:52:32;6.68;;;4.10;;
35777;SDS011;21899;42.662;23.316;2023-09-12T01:54:57;8.18;;;4.68;;
35777;SDS011;21899;42.662;23.316;2023-09-12T01:57:24;7.75;;;4.13;;
35777;SDS011;21899;42.662;23.316;2023-09-12T01:59:50;7.15;;;4.70;;
35777;SDS011;21899;42.662;23.316;2023-09-12T02:02:16;8.32;;;3.90;;
35777;SDS011;21899;42.662;23.316;2023-09-12T02:04:47;10.13;;;4.05;;
35777;SDS011;21899;42.662;23.316;2023-09-12T02:07:37;8.43;;;4.90;;
35777;SDS011;21899;42.662;23.316;2023-09-12T02:10:04;9.85;;;4.25;;
35777;SDS011;21899;42.662;23.316;2023-09-12T02:12:33;8.30;;;3.97;;
35777;SDS011;21899;42.662;23.316;2023-09-12T02:14:58;8.43;;;4.13;;
35777;SDS011;21899;42.662;23.316;2023-09-12T02:17:24;5.65;;;3.72;;
35777;SDS011;21899;42.662;23.316;2023-09-12T02:19:49;6.80;;;4.30;;
35777;SDS011;21899;42.662;23.316;2023-09-12T02:22:15;6.93;;;3.50;;
35777;SDS011;21899;42.662;23.316;2023-09-12T02:24:40;10.57;;;4.38;;
35777;SDS011;21899;42.662;23.316;2023-09-12T02:27:05;6.65;;;3.85;;
35777;SDS011;21899;42.662;23.316;2023-09-12T02:29:31;18.48;;;4.90;;
35777;SDS011;21899;42.662;23.316;2023-09-12T02:31:57;12.18;;;4.72;;
35777;SDS011;21899;42.662;23.316;2023-09-12T02:34:23;6.40;;;3.85;;
35777;SDS011;21899;42.662;23.316;2023-09-12T02:36:48;7.38;;;4.38;;
35777;SDS011;21899;42.662;23.316;2023-09-12T02:39:14;10.45;;;4.65;;
35777;SDS011;21899;42.662;23.316;2023-09-12T02:41:39;12.60;;;4.72;;
35777;SDS011;21899;42.662;23.316;2023-09-12T02:44:05;10.32;;;4.63;;
35777;SDS011;21899;42.662;23.316;2023-09-12T02:46:30;8.27;;;4.78;;
35777;SDS011;21899;42.662;23.316;2023-09-12T02:48:56;8.05;;;4.50;;
35777;SDS011;21899;42.662;23.316;2023-09-12T02:51:21;6.75;;;4.25;;
35777;SDS011;21899;42.662;23.316;2023-09-12T02:53:46;8.45;;;4.55;;
35777;SDS011;21899;42.662;23.316;2023-09-12T02:56:12;8.20;;;4.45;;
35777;SDS011;21899;42.662;23.316;2023-09-12T02:58:37;6.50;;;4.10;;
35777;SDS011;21899;42.662;23.316;2023-09-12T03:01:03;6.95;;;4.25;;
35777;SDS011;21899;42.662;23.316;2023-09-12T03:03:31;9.80;;;4.45;;
35777;SDS011;21899;42.662;23.316;2023-09-12T03:05:59;8.55;;;4.70;;
35777;SDS011;21899;42.662;23.316;2023-09-12T03:08:26;14.27;;;5.03;;
35777;SDS011;21899;42.662;23.316;2023-09-12T03:10:55;7.75;;;4.00;;
35777;SDS011;21899;42.662;23.316;2023-09-12T03:13:20;8.48;;;4.18;;
35777;SDS011;21899;42.662;23.316;2023-09-12T03:15:46;5.75;;;3.63;;
35777;SDS011;21899;42.662;23.316;2023-09-12T03:18:11;9.23;;;3.83;;
35777;SDS011;21899;42.662;23.316;2023-09-12T03:20:40;12.95;;;4.70;;
35777;SDS011;21899;42.662;23.316;2023-09-12T03:23:05;8.18;;;4.50;;
35777;SDS011;21899;42.662;23.316;2023-09-12T03:25:34;8.55;;;4.05;;
35777;SDS011;21899;42.662;23.316;2023-09-12T03:28:03;10.00;;;3.95;;
35777;SDS011;21899;42.662;23.316;2023-09-12T03:30:30;12.43;;;4.22;;
35777;SDS011;21899;42.662;23.316;2023-09-12T03:32:56;12.90;;;4.43;;
35777;SDS011;21899;42.662;23.316;2023-09-12T03:35:21;10.88;;;4.47;;
35777;SDS011;21899;42.662;23.316;2023-09-12T03:37:46;7.97;;;4.38;;
35777;SDS011;21899;42.662;23.316;2023-09-12T03:40:12;7.47;;;4.43;;
35777;SDS011;21899;42.662;23.316;2023-09-12T03:42:37;10.93;;;5.05;;
35777;SDS011;21899;42.662;23.316;2023-09-12T03:45:02;11.55;;;5.13;;
35777;SDS011;21899;42.662;23.316;2023-09-12T03:47:28;9.27;;;4.90;;
35777;SDS011;21899;42.662;23.316;2023-09-12T03:49:54;11.80;;;4.90;;
35777;SDS011;21899;42.662;23.316;2023-09-12T03:52:19;10.52;;;4.68;;
35777;SDS011;21899;42.662;23.316;2023-09-12T03:54:44;10.32;;;6.07;;
35777;SDS011;21899;42.662;23.316;2023-09-12T03:57:10;18.25;;;5.78;;
35777;SDS011;21899;42.662;23.316;2023-09-12T03:59:35;9.05;;;4.88;;
35777;SDS011;21899;42.662;23.316;2023-09-12T04:02:04;12.88;;;5.10;;
35777;SDS011;21899;42.662;23.316;2023-09-12T04:04:29;8.75;;;5.15;;
35777;SDS011;21899;42.662;23.316;2023-09-12T04:06:54;10.77;;;5.90;;
35777;SDS011;21899;42.662;23.316;2023-09-12T04:09:20;15.38;;;6.63;;
35777;SDS011;21899;42.662;23.316;2023-09-12T04:11:46;14.18;;;6.22;;
35777;SDS011;21899;42.662;23.316;2023-09-12T04:14:12;15.90;;;5.90;;
35777;SDS011;21899;42.662;23.316;2023-09-12T04:16:38;21.50;;;6.45;;
35777;SDS011;21899;42.662;23.316;2023-09-12T04:19:04;13.15;;;6.50;;
35777;SDS011;21899;42.662;23.316;2023-09-12T04:21:29;12.48;;;5.80;;
35777;SDS011;21899;42.662;23.316;2023-09-12T04:23:55;28.33;;;7.30;;
35777;SDS011;21899;42.662;23.316;2023-09-12T04:26:20;11.40;;;6.25;;
35777;SDS011;21899;42.662;23.316;2023-09-12T04:28:49;10.80;;;5.45;;
35777;SDS011;21899;42.662;23.316;2023-09-12T04:31:15;10.07;;;4.63;;
35777;SDS011;21899;42.662;23.316;2023-09-12T04:33:40;9.95;;;5.90;;
35777;SDS011;21899;42.662;23.316;2023-09-12T04:36:06;14.75;;;5.78;;
35777;SDS011;21899;42.662;23.316;2023-09-12T04:38:31;10.45;;;5.72;;
35777;SDS011;21899;42.662;23.316;2023-09-12T04:40:59;15.73;;;5.30;;
35777;SDS011;21899;42.662;23.316;2023-09-12T04:43:29;11.75;;;5.10;;
35777;SDS011;21899;42.662;23.316;2023-09-12T04:45:57;10.40;;;4.88;;
35777;SDS011;21899;42.662;23.316;2023-09-12T04:48:23;12.68;;;5.05;;
35777;SDS011;21899;42.662;23.316;2023-09-12T04:50:48;10.45;;;5.80;;
35777;SDS011;21899;42.662;23.316;2023-09-12T04:53:14;8.50;;;5.40;;
35777;SDS011;21899;42.662;23.316;2023-09-12T04:55:39;8.55;;;5.07;;
35777;SDS011;21899;42.662;23.316;2023-09-12T04:58:05;8.20;;;5.10;;
35777;SDS011;21899;42.662;23.316;2023-09-12T05:00:31;9.65;;;5.00;;
35777;SDS011;21899;42.662;23.316;2023-09-12T05:02:57;11.07;;;5.35;;
35777;SDS011;21899;42.662;23.316;2023-09-12T05:05:23;10.00;;;5.28;;
35777;SDS011;21899;42.662;23.316;2023-09-12T05:07:48;9.23;;;4.95;;
35777;SDS011;21899;42.662;23.316;2023-09-12T05:10:13;8.65;;;5.18;;
35777;SDS011;21899;42.662;23.316;2023-09-12T05:12:39;13.07;;;5.90;;
35777;SDS011;21899;42.662;23.316;2023-09-12T05:15:04;16.02;;;5.70;;
35777;SDS011;21899;42.662;23.316;2023-09-12T05:17:30;11.50;;;4.95;;
35777;SDS011;21899;42.662;23.316;2023-09-12T05:19:55;10.43;;;6.05;;
35777;SDS011;21899;42.662;23.316;2023-09-12T05:22:21;10.38;;;5.43;;
35777;SDS011;21899;42.662;23.316;2023-09-12T05:24:46;11.32;;;5.47;;
35777;SDS011;21899;42.662;23.316;2023-09-12T05:27:12;13.50;;;6.40;;
35777;SDS011;21899;42.662;23.316;2023-09-12T05:29:37;9.20;;;5.80;;
35777;SDS011;21899;42.662;23.316;2023-09-12T05:32:03;10.57;;;6.35;;
35777;SDS011;21899;42.662;23.316;2023-09-12T05:34:29;13.55;;;6.63;;
35777;SDS011;21899;42.662;23.316;2023-09-12T05:36:55;11.77;;;5.93;;
35777;SDS011;21899;42.662;23.316;2023-09-12T05:39:21;10.85;;;6.07;;
35777;SDS011;21899;42.662;23.316;2023-09-12T05:41:46;14.55;;;7.03;;
35777;SDS011;21899;42.662;23.316;2023-09-12T05:44:12;13.07;;;6.82;;
35777;SDS011;21899;42.662;23.316;2023-09-12T05:46:42;19.33;;;6.93;;
35777;SDS011;21899;42.662;23.316;2023-09-12T05:49:08;11.15;;;6.47;;
35777;SDS011;21899;42.662;23.316;2023-09-12T05:51:33;14.63;;;6.10;;
35777;SDS011;21899;42.662;23.316;2023-09-12T05:53:58;8.43;;;5.68;;
35777;SDS011;21899;42.662;23.316;2023-09-12T05:56:26;14.90;;;6.50;;
35777;SDS011;21899;42.662;23.316;2023-09-12T05:58:51;11.50;;;5.82;;
35777;SDS011;21899;42.662;23.316;2023-09-12T06:01:17;15.50;;;6.45;;
35777;SDS011;21899;42.662;23.316;2023-09-12T06:03:42;15.50;;;6.78;;
35777;SDS011;21899;42.662;23.316;2023-09-12T06:06:08;10.98;;;6.97;;
35777;SDS011;21899;42.662;23.316;2023-09-12T06:08:33;17.30;;;7.00;;
35777;SDS011;21899;42.662;23.316;2023-09-12T06:10:58;15.52;;;7.13;;
35777;SDS011;21899;42.662;23.316;2023-09-12T06:13:24;15.00;;;7.15;;
35777;SDS011;21899;42.662;23.316;2023-09-12T06:15:49;15.23;;;7.65;;
35777;SDS011;21899;42.662;23.316;2023-09-12T06:18:15;15.25;;;7.50;;
35777;SDS011;21899;42.662;23.316;2023-09-12T06:20:40;14.70;;;8.60;;
35777;SDS011;21899;42.662;23.316;2023-09-12T06:23:07;16.17;;;7.50;;
35777;SDS011;21899;42.662;23.316;2023-09-12T06:25:32;13.10;;;7.32;;
35777;SDS011;21899;42.662;23.316;2023-09-12T06:27:59;17.10;;;7.60;;
35777;SDS011;21899;42.662;23.316;2023-09-12T06:30:24;16.20;;;6.72;;
35777;SDS011;21899;42.662;23.316;2023-09-12T06:32:49;17.17;;;6.80;;
35777;SDS011;21899;42.662;23.316;2023-09-12T06:35:15;14.63;;;8.05;;
35777;SDS011;21899;42.662;23.316;2023-09-12T06:37:40;33.63;;;16.08;;
35777;SDS011;21899;42.662;23.316;2023-09-12T06:40:06;22.17;;;9.43;;
35777;SDS011;21899;42.662;23.316;2023-09-12T06:42:32;13.73;;;7.20;;
35777;SDS011;21899;42.662;23.316;2023-09-12T06:44:58;17.65;;;7.90;;
35777;SDS011;21899;42.662;23.316;2023-09-12T06:47:23;11.63;;;7.22;;
35777;SDS011;21899;42.662;23.316;2023-09-12T06:49:48;14.15;;;7.10;;
35777;SDS011;21899;42.662;23.316;2023-09-12T06:52:14;10.15;;;5.85;;
35777;SDS011;21899;42.662;23.316;2023-09-12T06:54:39;11.18;;;5.85;;
35777;SDS011;21899;42.662;23.316;2023-09-12T06:57:05;12.50;;;6.40;;
35777;SDS011;21899;42.662;23.316;2023-09-12T06:59:30;12.23;;;5.72;;
35777;SDS011;21899;42.662;23.316;2023-09-12T07:01:55;8.88;;;5.82;;
35777;SDS011;21899;42.662;23.316;2023-09-12T07:04:21;9.23;;;5.85;;
35777;SDS011;21899;42.662;23.316;2023-09-12T07:06:46;11.85;;;5.97;;
35777;SDS011;21899;42.662;23.316;2023-09-12T07:09:12;10.43;;;5.47;;
35777;SDS011;21899;42.662;23.316;2023-09-12T07:11:39;10.77;;;4.78;;
35777;SDS011;21899;42.662;23.316;2023-09-12T07:14:10;8.82;;;4.82;;
35777;SDS011;21899;42.662;23.316;2023-09-12T07:16:36;7.18;;;4.50;;
35777;SDS011;21899;42.662;23.316;2023-09-12T07:19:01;10.07;;;5.68;;
35777;SDS011;21899;42.662;23.316;2023-09-12T07:21:28;11.20;;;4.40;;
35777;SDS011;21899;42.662;23.316;2023-09-12T07:23:54;9.55;;;4.03;;
35777;SDS011;21899;42.662;23.316;2023-09-12T07:26:20;8.63;;;4.10;;
35777;SDS011;21899;42.662;23.316;2023-09-12T07:28:45;10.15;;;3.95;;
35777;SDS011;21899;42.662;23.316;2023-09-12T07:31:11;17.10;;;4.65;;
35777;SDS011;21899;42.662;23.316;2023-09-12T07:33:36;7.90;;;4.32;;
35777;SDS011;21899;42.662;23.316;2023-09-12T07:36:01;9.55;;;4.10;;
35777;SDS011;21899;42.662;23.316;2023-09-12T07:38:30;8.82;;;3.30;;
35777;SDS011;21899;42.662;23.316;2023-09-12T07:41:00;6.95;;;3.63;;
35777;SDS011;21899;42.662;23.316;2023-09-12T07:43:27;9.77;;;4.00;;
35777;SDS011;21899;42.662;23.316;2023-09-12T07:45:56;11.55;;;4.72;;
35777;SDS011;21899;42.662;23.316;2023-09-12T07:48:22;8.25;;;3.97;;
35777;SDS011;21899;42.662;23.316;2023-09-12T07:50:47;6.88;;;3.90;;
35777;SDS011;21899;42.662;23.316;2023-09-12T07:53:13;12.80;;;4.88;;
35777;SDS011;21899;42.662;23.316;2023-09-12T07:55:39;11.82;;;5.00;;
35777;SDS011;21899;42.662;23.316;2023-09-12T07:58:16;9.10;;;5.20;;
35777;SDS011;21899;42.662;23.316;2023-09-12T08:00:46;9.65;;;4.72;;
35777;SDS011;21899;42.662;23.316;2023-09-12T08:03:12;10.68;;;4.55;;
35777;SDS011;21899;42.662;23.316;2023-09-12T08:05:37;14.13;;;5.38;;
35777;SDS011;21899;42.662;23.316;2023-09-12T08:08:03;11.80;;;5.15;;
35777;SDS011;21899;42.662;23.316;2023-09-12T08:10:29;7.72;;;4.88;;
35777;SDS011;21899;42.662;23.316;2023-09-12T08:12:54;14.40;;;5.20;;
35777;SDS011;21899;42.662;23.316;2023-09-12T08:15:19;6.78;;;4.18;;
35777;SDS011;21899;42.662;23.316;2023-09-12T08:17:45;10.75;;;4.53;;
35777;SDS011;21899;42.662;23.316;2023-09-12T08:20:10;7.72;;;4.18;;
35777;SDS011;21899;42.662;23.316;2023-09-12T08:22:36;6.65;;;4.28;;
35777;SDS011;21899;42.662;23.316;2023-09-12T08:25:02;10.43;;;4.70;;
35777;SDS011;21899;42.662;23.316;2023-09-12T08:27:28;11.90;;;4.50;;
35777;SDS011;21899;42.662;23.316;2023-09-12T08:29:53;8.18;;;4.50;;
35777;SDS011;21899;42.662;23.316;2023-09-12T08:32:19;11.27;;;4.60;;
35777;SDS011;21899;42.662;23.316;2023-09-12T08:34:45;9.85;;;4.60;;
35777;SDS011;21899;42.662;23.316;2023-09-12T08:37:10;13.02;;;4.22;;
35777;SDS011;21899;42.662;23.316;2023-09-12T08:39:42;11.35;;;4.57;;
35777;SDS011;21899;42.662;23.316;2023-09-12T08:42:13;9.07;;;4.63;;
35777;SDS011;21899;42.662;23.316;2023-09-12T08:44:40;9.30;;;4.03;;
35777;SDS011;21899;42.662;23.316;2023-09-12T08:47:09;10.27;;;4.13;;
35777;SDS011;21899;42.662;23.316;2023-09-12T08:49:36;9.32;;;4.15;;
35777;SDS011;21899;42.662;23.316;2023-09-12T08:52:05;8.73;;;4.30;;
35777;SDS011;21899;42.662;23.316;2023-09-12T08:54:33;9.40;;;3.67;;
35777;SDS011;21899;42.662;23.316;2023-09-12T08:57:00;9.80;;;3.50;;
35777;SDS011;21899;42.662;23.316;2023-09-12T08:59:28;15.45;;;4.63;;
35777;SDS011;21899;42.662;23.316;2023-09-12T09:01:54;13.73;;;4.45;;
35777;SDS011;21899;42.662;23.316;2023-09-12T09:04:23;14.77;;;4.32;;
35777;SDS011;21899;42.662;23.316;2023-09-12T09:06:51;12.82;;;4.15;;
35777;SDS011;21899;42.662;23.316;2023-09-12T09:09:17;7.63;;;4.22;;
35777;SDS011;21899;42.662;23.316;2023-09-12T09:11:44;12.13;;;5.03;;
35777;SDS011;21899;42.662;23.316;2023-09-12T09:14:09;7.68;;;3.70;;
35777;SDS011;21899;42.662;23.316;2023-09-12T09:16:34;10.52;;;4.30;;
35777;SDS011;21899;42.662;23.316;2023-09-12T09:19:04;12.48;;;4.18;;
35777;SDS011;21899;42.662;23.316;2023-09-12T09:21:35;6.00;;;3.75;;
35777;SDS011;21899;42.662;23.316;2023-09-12T09:24:13;8.27;;;4.10;;
35777;SDS011;21899;42.662;23.316;2023-09-12T09:29:13;7.88;;;4.45;;
35777;SDS011;21899;42.662;23.316;2023-09-12T09:31:48;11.90;;;3.97;;
35777;SDS011;21899;42.662;23.316;2023-09-12T09:34:19;10.10;;;3.72;;
35777;SDS011;21899;42.662;23.316;2023-09-12T09:36:50;7.05;;;3.60;;
35777;SDS011;21899;42.662;23.316;2023-09-12T09:39:21;7.13;;;3.88;;
35777;SDS011;21899;42.662;23.316;2023-09-12T09:41:48;9.70;;;3.67;;
35777;SDS011;21899;42.662;23.316;2023-09-12T09:44:18;8.98;;;3.95;;
35777;SDS011;21899;42.662;23.316;2023-09-12T09:46:46;6.57;;;3.60;;
35777;SDS011;21899;42.662;23.316;2023-09-12T09:49:19;11.98;;;3.75;;
35777;SDS011;21899;42.662;23.316;2023-09-12T09:51:45;7.53;;;3.80;;
35777;SDS011;21899;42.662;23.316;2023-09-12T09:54:11;8.55;;;3.13;;
35777;SDS011;21899;42.662;23.316;2023-09-12T09:59:21;9.43;;;3.45;;
35777;SDS011;21899;42.662;23.316;2023-09-12T10:01:48;6.20;;;2.83;;
35777;SDS011;21899;42.662;23.316;2023-09-12T10:04:15;10.45;;;3.10;;
35777;SDS011;21899;42.662;23.316;2023-09-12T10:06:45;10.02;;;3.90;;
35777;SDS011;21899;42.662;23.316;2023-09-12T10:09:12;7.88;;;3.47;;
35777;SDS011;21899;42.662;23.316;2023-09-12T10:11:39;8.25;;;3.53;;
35777;SDS011;21899;42.662;23.316;2023-09-12T10:14:05;10.40;;;3.55;;
35777;SDS011;21899;42.662;23.316;2023-09-12T10:16:32;11.05;;;4.25;;
35777;SDS011;21899;42.662;23.316;2023-09-12T10:22:03;12.02;;;4.13;;
35777;SDS011;21899;42.662;23.316;2023-09-12T10:24:35;8.73;;;3.50;;
35777;SDS011;21899;42.662;23.316;2023-09-12T10:27:01;9.18;;;3.53;;
35777;SDS011;21899;42.662;23.316;2023-09-12T10:29:29;11.63;;;3.78;;
35777;SDS011;21899;42.662;23.316;2023-09-12T10:31:55;9.23;;;4.15;;
35777;SDS011;21899;42.662;23.316;2023-09-12T10:34:21;7.78;;;3.40;;
35777;SDS011;21899;42.662;23.316;2023-09-12T10:36:49;10.50;;;3.83;;
35777;SDS011;21899;42.662;23.316;2023-09-12T10:39:16;11.48;;;3.65;;
35777;SDS011;21899;42.662;23.316;2023-09-12T10:41:44;7.05;;;3.53;;
35777;SDS011;21899;42.662;23.316;2023-09-12T10:44:14;6.07;;;3.75;;
35777;SDS011;21899;42.662;23.316;2023-09-12T10:46:41;8.13;;;3.47;;
35777;SDS011;21899;42.662;23.316;2023-09-12T10:49:08;6.82;;;3.28;;
35777;SDS011;21899;42.662;23.316;2023-09-12T10:51:45;14.85;;;4.05;;
35777;SDS011;21899;42.662;23.316;2023-09-12T10:54:15;8.18;;;3.45;;
35777;SDS011;21899;42.662;23.316;2023-09-12T10:57:01;7.63;;;4.15;;
35777;SDS011;21899;42.662;23.316;2023-09-12T10:59:28;5.40;;;3.55;;
35777;SDS011;21899;42.662;23.316;2023-09-12T11:01:57;8.38;;;3.58;;
35777;SDS011;21899;42.662;23.316;2023-09-12T11:05:04;9.48;;;3.65;;
35777;SDS011;21899;42.662;23.316;2023-09-12T11:12:40;6.57;;;3.53;;
35777;SDS011;21899;42.662;23.316;2023-09-12T11:15:06;5.82;;;3.45;;
35777;SDS011;21899;42.662;23.316;2023-09-12T11:18:01;8.30;;;3.53;;
35777;SDS011;21899;42.662;23.316;2023-09-12T11:20:48;16.35;;;3.38;;
35777;SDS011;21899;42.662;23.316;2023-09-12T11:23:32;6.68;;;3.63;;
35777;SDS011;21899;42.662;23.316;2023-09-12T11:26:05;6.97;;;3.65;;
35777;SDS011;21899;42.662;23.316;2023-09-12T11:28:32;6.33;;;3.53;;
35777;SDS011;21899;42.662;23.316;2023-09-12T11:30:58;11.32;;;3.83;;
35777;SDS011;21899;42.662;23.316;2023-09-12T11:33:26;9.32;;;3.80;;
35777;SDS011;21899;42.662;23.316;2023-09-12T11:35:52;9.88;;;3.63;;
35777;SDS011;21899;42.662;23.316;2023-09-12T11:38:26;7.30;;;3.13;;
35777;SDS011;21899;42.662;23.316;2023-09-12T11:40:53;10.73;;;3.75;;
35777;SDS011;21899;42.662;23.316;2023-09-12T11:43:22;7.95;;;3.40;;
35777;SDS011;21899;42.662;23.316;2023-09-12T11:45:49;7.40;;;3.97;;
35777;SDS011;21899;42.662;23.316;2023-09-12T11:48:14;7.25;;;3.08;;
35777;SDS011;21899;42.662;23.316;2023-09-12T11:50:40;7.85;;;3.90;;
35777;SDS011;21899;42.662;23.316;2023-09-12T11:53:10;12.93;;;5.43;;
35777;SDS011;21899;42.662;23.316;2023-09-12T11:55:55;8.90;;;3.33;;
35777;SDS011;21899;42.662;23.316;2023-09-12T11:58:23;6.97;;;3.97;;
35777;SDS011;21899;42.662;23.316;2023-09-12T12:00:53;10.70;;;3.55;;
35777;SDS011;21899;42.662;23.316;2023-09-12T12:03:23;6.40;;;3.13;;
35777;SDS011;21899;42.662;23.316;2023-09-12T12:05:49;10.27;;;3.53;;
35777;SDS011;21899;42.662;23.316;2023-09-12T12:08:16;8.55;;;3.40;;
35777;SDS011;21899;42.662;23.316;2023-09-12T12:10:42;5.85;;;3.15;;
35777;SDS011;21899;42.662;23.316;2023-09-12T12:13:17;8.93;;;3.80;;
35777;SDS011;21899;42.662;23.316;2023-09-12T12:15:43;8.40;;;3.30;;
35777;SDS011;21899;42.662;23.316;2023-09-12T12:18:09;9.38;;;3.80;;
35777;SDS011;21899;42.662;23.316;2023-09-12T12:20:34;8.43;;;3.40;;
35777;SDS011;21899;42.662;23.316;2023-09-12T12:23:00;10.30;;;3.88;;
35777;SDS011;21899;42.662;23.316;2023-09-12T12:25:26;4.68;;;3.03;;
35777;SDS011;21899;42.662;23.316;2023-09-12T12:27:51;7.55;;;3.45;;
35777;SDS011;21899;42.662;23.316;2023-09-12T12:30:17;5.80;;;3.42;;
35777;SDS011;21899;42.662;23.316;2023-09-12T12:32:43;6.72;;;3.65;;
35777;SDS011;21899;42.662;23.316;2023-09-12T12:35:20;6.50;;;3.05;;
35777;SDS011;21899;42.662;23.316;2023-09-12T12:37:50;8.73;;;3.53;;
35777;SDS011;21899;42.662;23.316;2023-09-12T12:40:16;9.73;;;3.80;;
35777;SDS011;21899;42.662;23.316;2023-09-12T12:42:43;8.57;;;3.40;;
35777;SDS011;21899;42.662;23.316;2023-09-12T12:47:38;7.63;;;3.25;;
35777;SDS011;21899;42.662;23.316;2023-09-12T12:50:10;11.30;;;3.65;;
35777;SDS011;21899;42.662;23.316;2023-09-12T12:52:40;8.93;;;3.90;;
35777;SDS011;21899;42.662;23.316;2023-09-12T12:55:07;8.82;;;3.63;;
35777;SDS011;21899;42.662;23.316;2023-09-12T12:57:39;7.55;;;3.78;;
35777;SDS011;21899;42.662;23.316;2023-09-12T13:00:09;9.00;;;4.07;;
35777;SDS011;21899;42.662;23.316;2023-09-12T13:02:36;6.05;;;3.22;;
35777;SDS011;21899;42.662;23.316;2023-09-12T13:05:25;6.88;;;3.45;;
35777;SDS011;21899;42.662;23.316;2023-09-12T13:07:51;13.90;;;3.63;;
35777;SDS011;21899;42.662;23.316;2023-09-12T13:10:16;5.82;;;3.50;;
35777;SDS011;21899;42.662;23.316;2023-09-12T13:12:42;7.28;;;3.10;;
35777;SDS011;21899;42.662;23.316;2023-09-12T13:15:10;5.47;;;3.30;;
35777;SDS011;21899;42.662;23.316;2023-09-12T13:17:36;7.07;;;4.00;;
35777;SDS011;21899;42.662;23.316;2023-09-12T13:20:02;7.50;;;3.55;;
35777;SDS011;21899;42.662;23.316;2023-09-12T13:22:28;13.25;;;3.85;;
35777;SDS011;21899;42.662;23.316;2023-09-12T13:24:53;5.32;;;2.97;;
35777;SDS011;21899;42.662;23.316;2023-09-12T13:27:19;8.52;;;3.47;;
35777;SDS011;21899;42.662;23.316;2023-09-12T13:29:44;6.20;;;3.15;;
35777;SDS011;21899;42.662;23.316;2023-09-12T13:32:09;7.80;;;3.33;;
35777;SDS011;21899;42.662;23.316;2023-09-12T13:34:35;5.90;;;3.83;;
35777;SDS011;21899;42.662;23.316;2023-09-12T13:37:00;7.38;;;3.60;;
35777;SDS011;21899;42.662;23.316;2023-09-12T13:39:26;7.35;;;3.03;;
35777;SDS011;21899;42.662;23.316;2023-09-12T13:41:51;7.05;;;3.15;;
35777;SDS011;21899;42.662;23.316;2023-09-12T13:44:17;7.90;;;3.60;;
35777;SDS011;21899;42.662;23.316;2023-09-12T13:46:42;9.40;;;3.20;;
35777;SDS011;21899;42.662;23.316;2023-09-12T13:49:11;5.47;;;2.92;;
35777;SDS011;21899;42.662;23.316;2023-09-12T13:51:36;12.45;;;3.38;;
35777;SDS011;21899;42.662;23.316;2023-09-12T13:54:01;7.38;;;2.83;;
35777;SDS011;21899;42.662;23.316;2023-09-12T13:56:28;5.93;;;3.22;;
35777;SDS011;21899;42.662;23.316;2023-09-12T13:58:54;8.77;;;3.50;;
35777;SDS011;21899;42.662;23.316;2023-09-12T14:01:19;8.85;;;3.60;;
35777;SDS011;21899;42.662;23.316;2023-09-12T14:03:45;6.90;;;2.90;;
35777;SDS011;21899;42.662;23.316;2023-09-12T14:06:10;4.90;;;3.08;;
35777;SDS011;21899;42.662;23.316;2023-09-12T14:08:36;7.28;;;3.63;;
35777;SDS011;21899;42.662;23.316;2023-09-12T14:11:01;7.72;;;3.47;;
35777;SDS011;21899;42.662;23.316;2023-09-12T14:13:26;7.65;;;3.03;;
35777;SDS011;21899;42.662;23.316;2023-09-12T14:15:52;8.55;;;3.15;;
35777;SDS011;21899;42.662;23.316;2023-09-12T14:18:17;6.28;;;3.30;;
35777;SDS011;21899;42.662;23.316;2023-09-12T14:20:43;5.53;;;3.40;;
35777;SDS011;21899;42.662;23.316;2023-09-12T14:23:08;6.03;;;3.20;;
35777;SDS011;21899;42.662;23.316;2023-09-12T14:25:34;6.03;;;3.00;;
35777;SDS011;21899;42.662;23.316;2023-09-12T14:27:59;6.38;;;3.35;;
35777;SDS011;21899;42.662;23.316;2023-09-12T14:30:25;7.97;;;3.55;;
35777;SDS011;21899;42.662;23.316;2023-09-12T14:32:59;7.32;;;2.92;;
35777;SDS011;21899;42.662;23.316;2023-09-12T14:35:24;6.07;;;2.83;;
35777;SDS011;21899;42.662;23.316;2023-09-12T14:37:49;9.50;;;3.28;;
35777;SDS011;21899;42.662;23.316;2023-09-12T14:40:15;6.10;;;3.28;;
35777;SDS011;21899;42.662;23.316;2023-09-12T14:42:42;4.93;;;2.67;;
35777;SDS011;21899;42.662;23.316;2023-09-12T14:45:07;7.00;;;2.70;;
35777;SDS011;21899;42.662;23.316;2023-09-12T14:47:34;8.13;;;3.42;;
35777;SDS011;21899;42.662;23.316;2023-09-12T14:49:59;13.40;;;3.60;;
35777;SDS011;21899;42.662;23.316;2023-09-12T14:52:25;6.85;;;3.03;;